sensor_id;sensor_type;location;lat;lon;timestamp;pressure;altitude;pressure_sealevel;temperature;humidity
49999;BME280;68071;45.062;7.356;2023-04-25T00:01:46;94347.06;;;13.52;27.79
49999;BME280;68071;45.062;7.356;2023-04-25T00:04:50;94339.63;;;13.49;28.07
49999;BME280;68071;45.062;7.356;2023-04-25T00:07:54;94337.97;;;13.51;27.57
49999;BME280;68071;45.062;7.356;2023-04-25T00:10:59;94344.19;;;12.91;29.47
49999;BME280;68071;45.062;7.356;2023-04-25T00:14:04;94337.41;;;13.18;27.99
49999;BME280;68071;45.062;7.356;2023-04-25T00:17:08;94335.53;;;13.01;29.55
49999;BME280;68071;45.062;7.356;2023-04-25T00:20:12;94337.50;;;13.40;28.01
49999;BME280;68071;45.062;7.356;2023-04-25T00:23:16;94332.63;;;13.44;28.84
49999;BME280;68071;45.062;7.356;2023-04-25T00:26:23;94337.72;;;13.45;28.58
49999;BME280;68071;45.062;7.356;2023-04-25T00:29:27;94341.28;;;13.46;28.81
49999;BME280;68071;45.062;7.356;2023-04-25T00:32:31;94349.63;;;13.46;29.20
49999;BME280;68071;45.062;7.356;2023-04-25T00:35:35;94350.69;;;13.61;28.66
49999;BME280;68071;45.062;7.356;2023-04-25T00:38:39;94341.56;;;13.74;28.04
49999;BME280;68071;45.062;7.356;2023-04-25T00:41:44;94361.34;;;13.63;28.58
49999;BME280;68071;45.062;7.356;2023-04-25T00:44:49;94346.59;;;13.53;29.09
49999;BME280;68071;45.062;7.356;2023-04-25T00:47:54;94330.84;;;13.50;28.87
49999;BME280;68071;45.062;7.356;2023-04-25T00:50:59;94342.72;;;13.51;29.00
49999;BME280;68071;45.062;7.356;2023-04-25T00:54:04;94330.75;;;13.41;30.00
49999;BME280;68071;45.062;7.356;2023-04-25T00:57:08;94332.41;;;13.25;30.24
49999;BME280;68071;45.062;7.356;2023-04-25T01:00:12;94322.97;;;13.49;29.05
49999;BME280;68071;45.062;7.356;2023-04-25T01:03:18;94335.38;;;13.57;28.76
49999;BME280;68071;45.062;7.356;2023-04-25T01:06:26;94352.47;;;13.55;29.42
49999;BME280;68071;45.062;7.356;2023-04-25T01:09:31;94327.94;;;13.67;28.70
49999;BME280;68071;45.062;7.356;2023-04-25T01:12:38;94327.50;;;13.55;29.26
49999;BME280;68071;45.062;7.356;2023-04-25T01:15:42;94324.78;;;13.42;29.64
49999;BME280;68071;45.062;7.356;2023-04-25T01:18:48;94330.94;;;13.34;30.01
49999;BME280;68071;45.062;7.356;2023-04-25T01:21:52;94313.41;;;13.50;29.23
49999;BME280;68071;45.062;7.356;2023-04-25T01:24:57;94322.63;;;13.34;29.93
49999;BME280;68071;45.062;7.356;2023-04-25T01:28:01;94322.41;;;13.28;29.93
49999;BME280;68071;45.062;7.356;2023-04-25T01:31:06;94319.88;;;13.21;29.92
49999;BME280;68071;45.062;7.356;2023-04-25T01:34:10;94315.63;;;13.29;29.60
49999;BME280;68071;45.062;7.356;2023-04-25T01:37:14;94322.13;;;12.87;30.69
49999;BME280;68071;45.062;7.356;2023-04-25T01:40:20;94327.44;;;12.81;30.90
49999;BME280;68071;45.062;7.356;2023-04-25T01:43:24;94329.28;;;12.46;31.91
49999;BME280;68071;45.062;7.356;2023-04-25T01:46:30;94329.78;;;12.15;32.08
49999;BME280;68071;45.062;7.356;2023-04-25T01:49:34;94327.09;;;11.94;33.19
49999;BME280;68071;45.062;7.356;2023-04-25T01:52:38;94328.59;;;11.20;34.98
49999;BME280;68071;45.062;7.356;2023-04-25T01:55:44;94324.56;;;11.87;33.17
49999;BME280;68071;45.062;7.356;2023-04-25T01:58:51;94311.06;;;11.27;34.17
49999;BME280;68071;45.062;7.356;2023-04-25T02:01:58;94316.81;;;10.09;39.82
49999;BME280;68071;45.062;7.356;2023-04-25T02:05:08;94328.22;;;9.47;43.03
49999;BME280;68071;45.062;7.356;2023-04-25T02:08:16;94313.91;;;10.90;35.75
49999;BME280;68071;45.062;7.356;2023-04-25T02:11:20;94311.56;;;10.72;37.28
49999;BME280;68071;45.062;7.356;2023-04-25T02:14:39;94317.38;;;10.01;39.44
49999;BME280;68071;45.062;7.356;2023-04-25T02:17:51;94315.22;;;11.02;38.80
49999;BME280;68071;45.062;7.356;2023-04-25T02:20:59;94315.63;;;10.84;36.67
49999;BME280;68071;45.062;7.356;2023-04-25T02:24:05;94314.31;;;9.54;47.93
49999;BME280;68071;45.062;7.356;2023-04-25T02:27:11;94318.66;;;7.91;53.89
49999;BME280;68071;45.062;7.356;2023-04-25T02:30:15;94313.50;;;7.97;54.81
49999;BME280;68071;45.062;7.356;2023-04-25T02:33:19;94313.25;;;7.84;57.45
49999;BME280;68071;45.062;7.356;2023-04-25T02:36:24;94311.31;;;8.43;47.83
49999;BME280;68071;45.062;7.356;2023-04-25T02:39:28;94300.38;;;8.94;44.75
49999;BME280;68071;45.062;7.356;2023-04-25T02:42:33;94306.94;;;9.00;48.34
49999;BME280;68071;45.062;7.356;2023-04-25T02:45:37;94315.72;;;7.75;60.43
49999;BME280;68071;45.062;7.356;2023-04-25T02:48:41;94318.81;;;7.77;51.40
49999;BME280;68071;45.062;7.356;2023-04-25T02:51:46;94323.94;;;8.40;52.37
49999;BME280;68071;45.062;7.356;2023-04-25T02:54:50;94322.63;;;8.21;51.77
49999;BME280;68071;45.062;7.356;2023-04-25T02:57:54;94327.00;;;8.15;50.48
49999;BME280;68071;45.062;7.356;2023-04-25T03:01:11;94322.22;;;7.88;55.97
49999;BME280;68071;45.062;7.356;2023-04-25T03:04:15;94324.28;;;8.42;47.61
49999;BME280;68071;45.062;7.356;2023-04-25T03:07:19;94328.44;;;7.96;51.84
49999;BME280;68071;45.062;7.356;2023-04-25T03:10:25;94322.25;;;8.19;51.13
49999;BME280;68071;45.062;7.356;2023-04-25T03:13:30;94333.78;;;9.44;41.98
49999;BME280;68071;45.062;7.356;2023-04-25T03:16:35;94334.94;;;8.71;45.03
49999;BME280;68071;45.062;7.356;2023-04-25T03:19:39;94332.06;;;8.51;48.95
49999;BME280;68071;45.062;7.356;2023-04-25T03:22:43;94335.63;;;8.21;50.79
49999;BME280;68071;45.062;7.356;2023-04-25T03:25:48;94334.59;;;7.72;48.61
49999;BME280;68071;45.062;7.356;2023-04-25T03:28:52;94338.56;;;7.68;52.26
49999;BME280;68071;45.062;7.356;2023-04-25T03:31:56;94322.22;;;7.88;52.14
49999;BME280;68071;45.062;7.356;2023-04-25T03:35:01;94326.88;;;7.18;53.42
49999;BME280;68071;45.062;7.356;2023-04-25T03:38:07;94324.44;;;7.24;55.96
49999;BME280;68071;45.062;7.356;2023-04-25T03:41:16;94332.13;;;7.02;54.20
49999;BME280;68071;45.062;7.356;2023-04-25T03:44:24;94337.53;;;6.60;58.84
49999;BME280;68071;45.062;7.356;2023-04-25T03:47:29;94347.72;;;5.59;69.47
49999;BME280;68071;45.062;7.356;2023-04-25T03:50:33;94344.06;;;5.99;69.92
49999;BME280;68071;45.062;7.356;2023-04-25T03:53:37;94344.72;;;6.32;62.29
49999;BME280;68071;45.062;7.356;2023-04-25T03:57:05;94346.44;;;6.04;66.53
49999;BME280;68071;45.062;7.356;2023-04-25T04:00:12;94341.41;;;6.62;58.22
49999;BME280;68071;45.062;7.356;2023-04-25T04:03:19;94330.38;;;7.19;52.89
49999;BME280;68071;45.062;7.356;2023-04-25T04:06:24;94336.81;;;7.05;52.98
49999;BME280;68071;45.062;7.356;2023-04-25T04:09:35;94330.50;;;7.08;52.16
49999;BME280;68071;45.062;7.356;2023-04-25T04:12:44;94328.66;;;6.94;54.11
49999;BME280;68071;45.062;7.356;2023-04-25T04:15:49;94335.25;;;7.84;48.99
49999;BME280;68071;45.062;7.356;2023-04-25T04:18:53;94331.88;;;7.69;50.05
49999;BME280;68071;45.062;7.356;2023-04-25T04:21:57;94338.78;;;7.01;52.89
49999;BME280;68071;45.062;7.356;2023-04-25T04:25:01;94343.09;;;7.02;52.63
49999;BME280;68071;45.062;7.356;2023-04-25T04:28:25;94331.06;;;6.88;53.97
49999;BME280;68071;45.062;7.356;2023-04-25T04:31:35;94341.97;;;6.95;56.22
49999;BME280;68071;45.062;7.356;2023-04-25T04:34:40;94342.00;;;6.28;59.30
49999;BME280;68071;45.062;7.356;2023-04-25T04:37:45;94357.09;;;5.73;64.91
49999;BME280;68071;45.062;7.356;2023-04-25T04:40:51;94350.34;;;5.99;65.51
49999;BME280;68071;45.062;7.356;2023-04-25T04:44:02;94349.47;;;6.24;62.19
49999;BME280;68071;45.062;7.356;2023-04-25T04:47:18;94358.34;;;6.54;58.63
49999;BME280;68071;45.062;7.356;2023-04-25T04:50:49;94358.19;;;5.94;65.15
49999;BME280;68071;45.062;7.356;2023-04-25T04:54:02;94359.66;;;6.91;54.87
49999;BME280;68071;45.062;7.356;2023-04-25T04:57:18;94363.00;;;7.13;54.54
49999;BME280;68071;45.062;7.356;2023-04-25T05:00:35;94363.59;;;7.39;54.50
49999;BME280;68071;45.062;7.356;2023-04-25T05:03:58;94361.19;;;7.45;59.11
49999;BME280;68071;45.062;7.356;2023-04-25T05:07:23;94374.56;;;6.26;69.42
49999;BME280;68071;45.062;7.356;2023-04-25T05:10:38;94369.41;;;6.35;70.34
49999;BME280;68071;45.062;7.356;2023-04-25T05:14:02;94377.19;;;6.44;70.87
49999;BME280;68071;45.062;7.356;2023-04-25T05:17:35;94364.75;;;6.32;72.42
49999;BME280;68071;45.062;7.356;2023-04-25T05:20:42;94356.88;;;6.94;65.49
49999;BME280;68071;45.062;7.356;2023-04-25T05:24:03;94364.03;;;6.14;72.70
49999;BME280;68071;45.062;7.356;2023-04-25T05:27:26;94364.91;;;6.71;70.67
49999;BME280;68071;45.062;7.356;2023-04-25T05:30:50;94364.00;;;7.37;65.77
49999;BME280;68071;45.062;7.356;2023-04-25T05:34:05;94374.31;;;7.68;63.69
49999;BME280;68071;45.062;7.356;2023-04-25T05:37:22;94377.81;;;7.72;63.31
49999;BME280;68071;45.062;7.356;2023-04-25T05:40:42;94392.69;;;7.78;64.36
49999;BME280;68071;45.062;7.356;2023-04-25T05:43:55;94389.06;;;7.85;56.17
49999;BME280;68071;45.062;7.356;2023-04-25T05:47:08;94395.81;;;8.15;53.76
49999;BME280;68071;45.062;7.356;2023-04-25T05:50:30;94393.44;;;8.52;52.11
49999;BME280;68071;45.062;7.356;2023-04-25T05:53:39;94386.41;;;8.78;51.27
49999;BME280;68071;45.062;7.356;2023-04-25T05:56:44;94374.78;;;8.94;51.55
49999;BME280;68071;45.062;7.356;2023-04-25T05:59:48;94387.44;;;9.15;53.32
49999;BME280;68071;45.062;7.356;2023-04-25T06:02:52;94380.50;;;9.54;57.68
49999;BME280;68071;45.062;7.356;2023-04-25T06:05:57;94383.25;;;9.31;62.49
49999;BME280;68071;45.062;7.356;2023-04-25T06:09:01;94367.59;;;9.72;64.34
49999;BME280;68071;45.062;7.356;2023-04-25T06:12:06;94363.38;;;9.43;67.96
49999;BME280;68071;45.062;7.356;2023-04-25T06:15:10;94365.59;;;9.52;71.37
49999;BME280;68071;45.062;7.356;2023-04-25T06:18:15;94368.41;;;10.12;68.69
49999;BME280;68071;45.062;7.356;2023-04-25T06:21:19;94363.25;;;10.35;69.89
49999;BME280;68071;45.062;7.356;2023-04-25T06:24:23;94366.66;;;10.22;69.98
49999;BME280;68071;45.062;7.356;2023-04-25T06:27:27;94360.16;;;10.53;69.36
49999;BME280;68071;45.062;7.356;2023-04-25T06:30:31;94370.13;;;10.67;75.06
49999;BME280;68071;45.062;7.356;2023-04-25T06:33:42;94370.44;;;10.69;76.38
49999;BME280;68071;45.062;7.356;2023-04-25T06:36:46;94362.03;;;10.93;75.60
49999;BME280;68071;45.062;7.356;2023-04-25T06:39:52;94362.88;;;10.89;77.19
49999;BME280;68071;45.062;7.356;2023-04-25T06:42:56;94363.44;;;11.34;73.97
49999;BME280;68071;45.062;7.356;2023-04-25T06:46:20;94364.56;;;11.03;77.85
49999;BME280;68071;45.062;7.356;2023-04-25T06:49:26;94367.81;;;10.98;79.99
49999;BME280;68071;45.062;7.356;2023-04-25T06:52:30;94355.50;;;11.03;78.30
49999;BME280;68071;45.062;7.356;2023-04-25T06:55:35;94353.53;;;10.67;80.11
49999;BME280;68071;45.062;7.356;2023-04-25T06:58:51;94348.75;;;11.04;78.83
49999;BME280;68071;45.062;7.356;2023-04-25T07:02:02;94346.97;;;11.76;74.51
49999;BME280;68071;45.062;7.356;2023-04-25T07:05:07;94354.19;;;11.24;77.71
49999;BME280;68071;45.062;7.356;2023-04-25T07:08:12;94346.00;;;12.00;72.89
49999;BME280;68071;45.062;7.356;2023-04-25T07:11:16;94334.53;;;11.98;70.49
49999;BME280;68071;45.062;7.356;2023-04-25T07:14:21;94339.78;;;12.38;67.82
49999;BME280;68071;45.062;7.356;2023-04-25T07:17:25;94342.44;;;12.29;70.91
49999;BME280;68071;45.062;7.356;2023-04-25T07:20:29;94335.84;;;12.78;70.20
49999;BME280;68071;45.062;7.356;2023-04-25T07:23:35;94337.41;;;12.92;65.93
49999;BME280;68071;45.062;7.356;2023-04-25T07:26:45;94335.97;;;12.87;67.37
49999;BME280;68071;45.062;7.356;2023-04-25T07:30:13;94343.44;;;13.03;68.78
49999;BME280;68071;45.062;7.356;2023-04-25T07:33:18;94336.41;;;12.98;66.61
49999;BME280;68071;45.062;7.356;2023-04-25T07:36:24;94329.56;;;12.90;69.14
49999;BME280;68071;45.062;7.356;2023-04-25T07:39:30;94321.00;;;12.97;67.26
49999;BME280;68071;45.062;7.356;2023-04-25T07:42:34;94312.53;;;13.53;60.41
49999;BME280;68071;45.062;7.356;2023-04-25T07:45:40;94302.44;;;13.81;58.56
49999;BME280;68071;45.062;7.356;2023-04-25T07:48:44;94302.63;;;13.39;63.51
49999;BME280;68071;45.062;7.356;2023-04-25T07:51:49;94304.00;;;13.47;62.34
49999;BME280;68071;45.062;7.356;2023-04-25T07:54:56;94291.38;;;13.90;39.41
49999;BME280;68071;45.062;7.356;2023-04-25T07:58:11;94284.38;;;14.52;33.62
49999;BME280;68071;45.062;7.356;2023-04-25T08:01:18;94307.84;;;13.63;45.01
49999;BME280;68071;45.062;7.356;2023-04-25T08:04:37;94291.72;;;13.92;60.55
49999;BME280;68071;45.062;7.356;2023-04-25T08:07:44;94283.25;;;14.18;63.09
49999;BME280;68071;45.062;7.356;2023-04-25T08:10:49;94279.44;;;14.03;62.35
49999;BME280;68071;45.062;7.356;2023-04-25T08:13:54;94287.13;;;14.43;62.40
49999;BME280;68071;45.062;7.356;2023-04-25T08:16:59;94288.41;;;14.83;58.34
49999;BME280;68071;45.062;7.356;2023-04-25T08:20:05;94284.50;;;15.12;57.32
49999;BME280;68071;45.062;7.356;2023-04-25T08:23:12;94258.19;;;14.63;56.51
49999;BME280;68071;45.062;7.356;2023-04-25T08:26:48;94277.22;;;14.42;59.37
49999;BME280;68071;45.062;7.356;2023-04-25T08:30:01;94277.88;;;14.46;57.59
49999;BME280;68071;45.062;7.356;2023-04-25T08:33:08;94284.44;;;14.62;56.94
49999;BME280;68071;45.062;7.356;2023-04-25T08:36:27;94273.44;;;14.90;56.66
49999;BME280;68071;45.062;7.356;2023-04-25T08:39:32;94282.09;;;14.82;58.43
49999;BME280;68071;45.062;7.356;2023-04-25T08:43:09;94286.59;;;15.49;55.30
49999;BME280;68071;45.062;7.356;2023-04-25T08:46:19;94282.97;;;15.11;53.70
49999;BME280;68071;45.062;7.356;2023-04-25T08:49:44;94300.81;;;14.91;54.26
49999;BME280;68071;45.062;7.356;2023-04-25T08:52:50;94287.88;;;15.07;55.63
49999;BME280;68071;45.062;7.356;2023-04-25T08:55:58;94320.84;;;15.18;56.93
49999;BME280;68071;45.062;7.356;2023-04-25T08:59:02;94309.22;;;15.60;50.92
49999;BME280;68071;45.062;7.356;2023-04-25T09:02:06;94287.91;;;15.16;54.67
49999;BME280;68071;45.062;7.356;2023-04-25T09:05:14;94315.13;;;15.12;57.58
49999;BME280;68071;45.062;7.356;2023-04-25T09:08:18;94304.63;;;15.25;55.98
49999;BME280;68071;45.062;7.356;2023-04-25T09:11:23;94317.91;;;15.12;59.02
49999;BME280;68071;45.062;7.356;2023-04-25T09:14:30;94318.03;;;15.08;60.21
49999;BME280;68071;45.062;7.356;2023-04-25T09:17:41;94314.66;;;15.13;57.55
49999;BME280;68071;45.062;7.356;2023-04-25T09:20:49;94298.41;;;14.71;59.40
49999;BME280;68071;45.062;7.356;2023-04-25T09:23:56;94307.63;;;14.90;61.68
49999;BME280;68071;45.062;7.356;2023-04-25T09:27:08;94299.13;;;15.44;55.80
49999;BME280;68071;45.062;7.356;2023-04-25T09:30:15;94315.34;;;15.46;59.74
49999;BME280;68071;45.062;7.356;2023-04-25T09:33:40;94309.81;;;15.83;59.46
49999;BME280;68071;45.062;7.356;2023-04-25T09:36:46;94317.63;;;16.16;59.07
49999;BME280;68071;45.062;7.356;2023-04-25T09:40:14;94324.13;;;16.31;59.21
49999;BME280;68071;45.062;7.356;2023-04-25T09:43:45;94338.84;;;16.04;56.37
49999;BME280;68071;45.062;7.356;2023-04-25T09:46:50;94327.84;;;15.91;56.80
49999;BME280;68071;45.062;7.356;2023-04-25T09:50:00;94321.50;;;16.00;54.81
49999;BME280;68071;45.062;7.356;2023-04-25T09:53:05;94314.69;;;16.01;54.95
49999;BME280;68071;45.062;7.356;2023-04-25T09:56:27;94320.13;;;15.26;55.52
49999;BME280;68071;45.062;7.356;2023-04-25T09:59:35;94303.13;;;15.52;54.64
49999;BME280;68071;45.062;7.356;2023-04-25T10:02:46;94302.97;;;15.47;55.67
49999;BME280;68071;45.062;7.356;2023-04-25T10:06:19;94313.72;;;16.32;55.84
49999;BME280;68071;45.062;7.356;2023-04-25T10:09:26;94325.03;;;16.19;51.70
49999;BME280;68071;45.062;7.356;2023-04-25T10:12:33;94326.59;;;15.92;50.24
49999;BME280;68071;45.062;7.356;2023-04-25T10:15:37;94314.78;;;15.69;51.71
49999;BME280;68071;45.062;7.356;2023-04-25T10:18:42;94316.38;;;15.89;51.65
49999;BME280;68071;45.062;7.356;2023-04-25T10:21:51;94324.50;;;15.55;54.67
49999;BME280;68071;45.062;7.356;2023-04-25T10:24:56;94337.09;;;15.79;53.39
49999;BME280;68071;45.062;7.356;2023-04-25T10:28:03;94329.53;;;15.98;51.41
49999;BME280;68071;45.062;7.356;2023-04-25T10:31:08;94314.47;;;15.58;51.92
49999;BME280;68071;45.062;7.356;2023-04-25T10:34:12;94311.25;;;15.97;52.15
49999;BME280;68071;45.062;7.356;2023-04-25T10:37:18;94303.09;;;16.73;50.08
49999;BME280;68071;45.062;7.356;2023-04-25T10:40:22;94312.84;;;16.78;50.09
49999;BME280;68071;45.062;7.356;2023-04-25T10:46:35;94312.78;;;16.44;49.23
49999;BME280;68071;45.062;7.356;2023-04-25T10:49:44;94309.19;;;17.15;50.50
49999;BME280;68071;45.062;7.356;2023-04-25T10:52:48;94305.41;;;16.75;49.79
49999;BME280;68071;45.062;7.356;2023-04-25T10:55:57;94309.56;;;16.98;46.67
49999;BME280;68071;45.062;7.356;2023-04-25T10:59:15;94306.56;;;16.59;48.79
49999;BME280;68071;45.062;7.356;2023-04-25T11:02:19;94306.63;;;16.83;50.13
49999;BME280;68071;45.062;7.356;2023-04-25T11:05:32;94287.78;;;16.59;48.63
49999;BME280;68071;45.062;7.356;2023-04-25T11:08:56;94294.97;;;16.42;47.86
49999;BME280;68071;45.062;7.356;2023-04-25T11:12:00;94289.75;;;15.97;47.83
49999;BME280;68071;45.062;7.356;2023-04-25T11:15:09;94303.84;;;16.22;48.70
49999;BME280;68071;45.062;7.356;2023-04-25T11:18:16;94306.38;;;16.62;48.95
49999;BME280;68071;45.062;7.356;2023-04-25T11:21:20;94301.56;;;17.15;47.64
49999;BME280;68071;45.062;7.356;2023-04-25T11:24:27;94293.84;;;17.10;50.21
49999;BME280;68071;45.062;7.356;2023-04-25T11:27:32;94282.84;;;17.40;47.50
49999;BME280;68071;45.062;7.356;2023-04-25T11:30:39;94283.91;;;17.67;43.82
49999;BME280;68071;45.062;7.356;2023-04-25T11:33:44;94284.25;;;17.60;43.06
49999;BME280;68071;45.062;7.356;2023-04-25T11:36:49;94286.47;;;18.19;43.73
49999;BME280;68071;45.062;7.356;2023-04-25T11:39:53;94289.84;;;18.23;43.77
49999;BME280;68071;45.062;7.356;2023-04-25T11:43:00;94280.31;;;18.15;42.39
49999;BME280;68071;45.062;7.356;2023-04-25T11:46:08;94278.72;;;17.99;39.81
49999;BME280;68071;45.062;7.356;2023-04-25T11:49:15;94299.88;;;17.91;43.54
49999;BME280;68071;45.062;7.356;2023-04-25T11:52:21;94294.50;;;18.26;43.80
49999;BME280;68071;45.062;7.356;2023-04-25T11:55:26;94290.56;;;18.78;40.84
49999;BME280;68071;45.062;7.356;2023-04-25T12:02:00;94274.28;;;18.07;26.51
49999;BME280;68071;45.062;7.356;2023-04-25T12:05:07;94263.41;;;18.09;22.25
49999;BME280;68071;45.062;7.356;2023-04-25T12:08:13;94283.38;;;18.02;22.52
49999;BME280;68071;45.062;7.356;2023-04-25T12:11:21;94285.06;;;17.99;22.53
49999;BME280;68071;45.062;7.356;2023-04-25T12:14:27;94269.38;;;17.78;22.19
49999;BME280;68071;45.062;7.356;2023-04-25T12:17:33;94274.03;;;18.20;20.96
49999;BME280;68071;45.062;7.356;2023-04-25T12:20:37;94274.63;;;18.54;22.48
49999;BME280;68071;45.062;7.356;2023-04-25T12:23:41;94307.97;;;18.13;19.22
49999;BME280;68071;45.062;7.356;2023-04-25T12:29:57;94284.06;;;17.88;20.15
49999;BME280;68071;45.062;7.356;2023-04-25T12:33:01;94292.81;;;18.05;18.77
49999;BME280;68071;45.062;7.356;2023-04-25T12:36:05;94287.16;;;18.14;20.26
49999;BME280;68071;45.062;7.356;2023-04-25T12:39:16;94290.81;;;18.20;20.37
49999;BME280;68071;45.062;7.356;2023-04-25T12:42:20;94296.44;;;18.35;19.02
49999;BME280;68071;45.062;7.356;2023-04-25T12:45:23;94319.88;;;17.74;20.36
49999;BME280;68071;45.062;7.356;2023-04-25T12:48:28;94297.94;;;17.58;18.32
49999;BME280;68071;45.062;7.356;2023-04-25T12:51:32;94310.88;;;18.19;20.56
49999;BME280;68071;45.062;7.356;2023-04-25T12:54:36;94340.00;;;18.27;19.35
49999;BME280;68071;45.062;7.356;2023-04-25T12:57:40;94337.94;;;18.12;18.29
49999;BME280;68071;45.062;7.356;2023-04-25T13:00:45;94326.13;;;17.93;18.53
49999;BME280;68071;45.062;7.356;2023-04-25T13:03:50;94336.03;;;17.70;20.45
49999;BME280;68071;45.062;7.356;2023-04-25T13:06:55;94339.00;;;17.66;19.86
49999;BME280;68071;45.062;7.356;2023-04-25T13:09:59;94336.69;;;18.13;19.96
49999;BME280;68071;45.062;7.356;2023-04-25T13:13:04;94350.38;;;18.51;20.12
49999;BME280;68071;45.062;7.356;2023-04-25T13:16:08;94349.25;;;18.18;20.10
49999;BME280;68071;45.062;7.356;2023-04-25T13:19:12;94338.50;;;18.02;22.00
49999;BME280;68071;45.062;7.356;2023-04-25T13:22:16;94335.91;;;18.67;20.06
49999;BME280;68071;45.062;7.356;2023-04-25T13:25:22;94343.78;;;17.99;18.59
49999;BME280;68071;45.062;7.356;2023-04-25T13:28:27;94362.56;;;18.23;19.08
49999;BME280;68071;45.062;7.356;2023-04-25T13:31:32;94340.69;;;18.22;20.01
49999;BME280;68071;45.062;7.356;2023-04-25T13:34:36;94345.78;;;18.23;19.88
49999;BME280;68071;45.062;7.356;2023-04-25T13:37:40;94345.91;;;17.80;19.49
49999;BME280;68071;45.062;7.356;2023-04-25T13:40:44;94341.94;;;17.72;18.09
49999;BME280;68071;45.062;7.356;2023-04-25T13:43:48;94342.75;;;17.88;18.99
49999;BME280;68071;45.062;7.356;2023-04-25T13:46:52;94345.69;;;18.18;19.33
49999;BME280;68071;45.062;7.356;2023-04-25T13:49:56;94351.94;;;17.88;18.29
49999;BME280;68071;45.062;7.356;2023-04-25T13:53:00;94343.41;;;18.31;20.14
49999;BME280;68071;45.062;7.356;2023-04-25T13:56:07;94342.94;;;18.48;19.83
49999;BME280;68071;45.062;7.356;2023-04-25T13:59:11;94337.06;;;18.60;20.83
49999;BME280;68071;45.062;7.356;2023-04-25T14:02:15;94334.91;;;18.25;18.79
49999;BME280;68071;45.062;7.356;2023-04-25T14:05:20;94344.59;;;17.42;19.04
49999;BME280;68071;45.062;7.356;2023-04-25T14:08:24;94343.00;;;17.75;19.12
49999;BME280;68071;45.062;7.356;2023-04-25T14:11:27;94350.91;;;17.52;19.17
49999;BME280;68071;45.062;7.356;2023-04-25T14:14:31;94375.41;;;17.81;19.00
49999;BME280;68071;45.062;7.356;2023-04-25T14:17:35;94335.09;;;18.22;18.34
49999;BME280;68071;45.062;7.356;2023-04-25T14:20:39;94343.72;;;17.84;20.36
49999;BME280;68071;45.062;7.356;2023-04-25T14:23:45;94334.72;;;18.29;19.22
49999;BME280;68071;45.062;7.356;2023-04-25T14:26:51;94332.38;;;17.64;19.33
49999;BME280;68071;45.062;7.356;2023-04-25T14:29:55;94341.03;;;17.90;18.68
49999;BME280;68071;45.062;7.356;2023-04-25T14:32:59;94342.81;;;17.78;21.24
49999;BME280;68071;45.062;7.356;2023-04-25T14:36:04;94325.59;;;18.43;19.66
49999;BME280;68071;45.062;7.356;2023-04-25T14:39:08;94322.94;;;18.25;18.60
49999;BME280;68071;45.062;7.356;2023-04-25T14:42:13;94320.06;;;18.34;16.99
49999;BME280;68071;45.062;7.356;2023-04-25T14:45:18;94322.53;;;18.17;19.41
49999;BME280;68071;45.062;7.356;2023-04-25T14:48:22;94333.94;;;18.28;18.04
49999;BME280;68071;45.062;7.356;2023-04-25T14:51:26;94356.16;;;18.08;17.89
49999;BME280;68071;45.062;7.356;2023-04-25T14:54:31;94331.00;;;18.92;18.05
49999;BME280;68071;45.062;7.356;2023-04-25T14:57:36;94328.44;;;17.95;19.92
49999;BME280;68071;45.062;7.356;2023-04-25T15:00:40;94329.09;;;18.14;17.67
49999;BME280;68071;45.062;7.356;2023-04-25T15:03:44;94324.63;;;18.07;18.12
49999;BME280;68071;45.062;7.356;2023-04-25T15:06:48;94336.09;;;17.61;16.62
49999;BME280;68071;45.062;7.356;2023-04-25T15:09:52;94314.94;;;18.18;17.37
49999;BME280;68071;45.062;7.356;2023-04-25T15:12:57;94333.91;;;17.65;16.96
49999;BME280;68071;45.062;7.356;2023-04-25T15:16:02;94312.91;;;18.33;17.68
49999;BME280;68071;45.062;7.356;2023-04-25T15:19:06;94330.31;;;18.52;17.42
49999;BME280;68071;45.062;7.356;2023-04-25T15:22:11;94323.47;;;17.99;17.70
49999;BME280;68071;45.062;7.356;2023-04-25T15:25:15;94322.91;;;17.61;16.29
49999;BME280;68071;45.062;7.356;2023-04-25T15:28:23;94330.44;;;17.46;16.45
49999;BME280;68071;45.062;7.356;2023-04-25T15:31:27;94329.03;;;17.75;16.70
49999;BME280;68071;45.062;7.356;2023-04-25T15:34:31;94305.41;;;18.54;17.47
49999;BME280;68071;45.062;7.356;2023-04-25T15:37:43;94312.53;;;19.15;17.53
49999;BME280;68071;45.062;7.356;2023-04-25T15:40:47;94315.03;;;18.23;16.61
49999;BME280;68071;45.062;7.356;2023-04-25T15:43:52;94328.91;;;17.69;16.31
49999;BME280;68071;45.062;7.356;2023-04-25T15:46:57;94337.00;;;18.16;16.72
49999;BME280;68071;45.062;7.356;2023-04-25T15:50:01;94350.91;;;17.52;16.26
49999;BME280;68071;45.062;7.356;2023-04-25T15:53:05;94349.63;;;18.11;18.36
49999;BME280;68071;45.062;7.356;2023-04-25T15:56:10;94353.06;;;17.81;17.14
49999;BME280;68071;45.062;7.356;2023-04-25T15:59:14;94346.44;;;18.42;17.58
49999;BME280;68071;45.062;7.356;2023-04-25T16:02:18;94352.31;;;18.05;16.52
49999;BME280;68071;45.062;7.356;2023-04-25T16:05:22;94342.53;;;17.52;17.47
49999;BME280;68071;45.062;7.356;2023-04-25T16:08:26;94364.34;;;17.63;16.41
49999;BME280;68071;45.062;7.356;2023-04-25T16:11:32;94351.41;;;17.41;16.46
49999;BME280;68071;45.062;7.356;2023-04-25T16:14:36;94352.31;;;17.47;17.43
49999;BME280;68071;45.062;7.356;2023-04-25T16:17:40;94367.69;;;17.43;17.53
49999;BME280;68071;45.062;7.356;2023-04-25T16:20:44;94360.94;;;17.59;18.50
49999;BME280;68071;45.062;7.356;2023-04-25T16:23:49;94329.16;;;17.80;17.90
49999;BME280;68071;45.062;7.356;2023-04-25T16:26:53;94336.22;;;17.42;17.02
49999;BME280;68071;45.062;7.356;2023-04-25T16:29:58;94341.16;;;17.72;17.70
49999;BME280;68071;45.062;7.356;2023-04-25T16:33:01;94333.34;;;18.24;16.79
49999;BME280;68071;45.062;7.356;2023-04-25T16:36:05;94353.78;;;17.67;17.10
49999;BME280;68071;45.062;7.356;2023-04-25T16:39:10;94355.53;;;17.55;17.49
49999;BME280;68071;45.062;7.356;2023-04-25T16:42:14;94344.91;;;17.35;17.65
49999;BME280;68071;45.062;7.356;2023-04-25T16:45:19;94359.63;;;17.69;17.56